Weather History for Boonville, MO

Change the Weather History Date:

Sunday, January 15, 2012

  Actual Average Record
Temperature  
Mean Temperature 39 °F -  
Max Temperature 54 °F 35 °F 70 °F (1952)
Min Temperature 24 °F 17 °F -9 °F (1972)
Degree Days  
Heating Degree Days 26    
Moisture  
Dew Point 25 °F    
Average Humidity 60    
Maximum Humidity 87    
Minimum Humidity 35    
Precipitation  
Precipitation 0.00 in - - ()
Sea Level Pressure  
Sea Level Pressure 30.11 in    
Wind  
Wind Speed 11 mph (SSE)    
Max Wind Speed 25 mph    
Max Gust Speed 34 mph    
Visibility 10 miles    
Events      
Averages and records for this station are not official NWS values.
T = Trace of Precipitation, MM = Missing Value Source: NWS Daily Summary

Daily Weather History Graph

Daily Weather History Graph

Search for Another Location

Airport:

Trip Planner

Search our weather history database for the weather conditions in past years. The results will help you decide how hot, cold, wet, or windy it might be!

Date:

Astronomy

Jan. 15, 2012 Rise Set
Actual Time 7:28 AM CST 5:12 PM CST
Civil Twilight 6:58 AM CST 5:41 PM CST
Nautical Twilight 6:26 AM CST 6:14 PM CST
Astronomical Twilight 5:54 AM CST 6:46 PM CST
Moon No Moon Rise 10:50 AM CST (1/15)
Length of Visible Light 10h 42m
Length of Day
9h 44m
Waning Gibbous, 57% of the Moon is Illuminated
Jan 15
Waning Gibbous
Jan 16
Last Quarter
Jan 23
New
Jan 30
First Quarter
Feb 7
Full

Hourly Weather History & Observations

Time (CST) Temp. Windchill Dew Point Humidity Pressure Visibility Wind Dir Wind Speed Gust Speed Precip Events Conditions
12:15 AM 25.7 °F 19.0 °F 21.0 °F 82% 30.24 in 10.0 mi SSE 5.8 mph - N/A   Clear
12:35 AM 25.7 °F 19.0 °F 20.8 °F 82% 30.24 in 10.0 mi South 5.8 mph - N/A   Clear
12:55 AM 26.1 °F 19.4 °F 20.8 °F 81% 30.24 in 10.0 mi SSE 5.8 mph - N/A   Clear
1:15 AM 25.9 °F 19.2 °F 20.8 °F 81% 30.24 in 10.0 mi SSE 5.8 mph - N/A   Clear
1:35 AM 25.7 °F 19.0 °F 20.7 °F 81% 30.24 in 10.0 mi South 5.8 mph - N/A   Clear
1:55 AM 25.5 °F 18.7 °F 20.7 °F 82% 30.24 in 10.0 mi SSE 5.8 mph - N/A   Clear
2:15 AM 25.7 °F 18.0 °F 20.8 °F 82% 30.25 in 10.0 mi SSE 6.9 mph - N/A   Clear
2:35 AM 25.7 °F 19.0 °F 20.8 °F 82% 30.25 in 10.0 mi South 5.8 mph - N/A   Clear
2:55 AM 25.9 °F 19.2 °F 21.0 °F 82% 30.25 in 10.0 mi SSE 5.8 mph - N/A   Clear
3:15 AM 26.2 °F 19.6 °F 21.0 °F 81% 30.25 in 10.0 mi SSE 5.8 mph - N/A   Clear
3:35 AM 26.4 °F 18.9 °F 21.0 °F 80% 30.25 in 10.0 mi SE 6.9 mph - N/A   Clear
4:15 AM 24.8 °F 17.9 °F 20.7 °F 84% 30.24 in 10.0 mi SSE 5.8 mph - N/A   Clear
4:35 AM 24.4 °F 17.5 °F 20.5 °F 85% 30.24 in 10.0 mi SSE 5.8 mph - N/A   Clear
4:55 AM 24.8 °F 17.9 °F 20.8 °F 85% 30.23 in 10.0 mi SSE 5.8 mph - N/A   Clear
5:15 AM 25.5 °F 19.9 °F 21.2 °F 84% 30.23 in 10.0 mi SSE 4.6 mph - N/A   Clear
5:35 AM 25.9 °F 20.3 °F 21.7 °F 84% 30.24 in 10.0 mi SSE 4.6 mph - N/A   Clear
5:55 AM 25.7 °F 21.5 °F 21.7 °F 85% 30.24 in 10.0 mi SSE 3.5 mph - N/A   Clear
6:15 AM 25.2 °F 16.5 °F 21.4 °F 86% 30.23 in 10.0 mi SE 8.1 mph - N/A   Clear
6:35 AM 25.0 °F 17.1 °F 21.6 °F 87% 30.23 in 10.0 mi SSE 6.9 mph - N/A   Clear
7:15 AM 27.0 °F 18.0 °F 22.6 °F 84% 30.23 in 10.0 mi SSE 9.2 mph - N/A   Clear
7:35 AM 27.9 °F 16.8 °F 23.0 °F 82% 30.22 in 10.0 mi SE 13.8 mph - N/A   Clear
7:55 AM 28.8 °F 19.5 °F 23.2 °F 80% 30.21 in 10.0 mi SSE 10.4 mph - N/A   Clear
8:15 AM 29.7 °F 20.1 °F 23.7 °F 79% 30.22 in 10.0 mi SSE 11.5 mph - N/A   Clear
8:35 AM 31.1 °F 20.9 °F 24.4 °F 76% 30.22 in 10.0 mi SE 13.8 mph - N/A   Clear
9:15 AM 34.2 °F 24.0 °F 26.1 °F 72% 30.21 in 10.0 mi SSE 16.1 mph 21.9 mph N/A   Clear
9:35 AM 36.0 °F 26.3 °F 27.0 °F 70% 30.20 in 10.0 mi SSE 16.1 mph - N/A   Clear
9:55 AM 37.8 °F 27.7 °F 27.0 °F 65% 30.19 in 10.0 mi SSE 19.6 mph 25.3 mph N/A   Clear
10:15 AM 39.6 °F 30.3 °F 26.6 °F 60% 30.18 in 10.0 mi SSE 18.4 mph 23.0 mph N/A   Clear
10:35 AM 41.2 °F 31.6 °F 26.1 °F 55% 30.17 in 10.0 mi SSE 21.9 mph 27.6 mph N/A   Clear
10:55 AM 42.8 °F 33.8 °F 25.0 °F 49% 30.16 in 10.0 mi SSE 21.9 mph 28.8 mph N/A   Clear
11:15 AM 44.1 °F 35.9 °F 24.3 °F 46% 30.15 in 10.0 mi SSE 19.6 mph 28.8 mph N/A   Clear
11:35 AM 45.3 °F 37.1 °F 24.4 °F 44% 30.13 in 10.0 mi SSE 21.9 mph 28.8 mph N/A   Clear
11:55 AM 46.9 °F - 25.0 °F 42% 30.11 in 10.0 mi SSE 21.9 mph 26.5 mph N/A   Clear
12:35 PM 49.5 °F - 26.4 °F 41% 30.07 in 10.0 mi SSE 25.3 mph 31.1 mph N/A   Clear
12:55 PM 50.5 °F - 26.2 °F 39% 30.05 in 10.0 mi South 24.2 mph 32.2 mph N/A   Clear
1:15 PM 51.1 °F - 26.1 °F 38% 30.04 in 10.0 mi South 20.7 mph 34.5 mph N/A   Clear
1:35 PM 52.0 °F - 26.2 °F 37% 30.03 in 10.0 mi South 21.9 mph 28.8 mph N/A   Clear
1:55 PM 52.9 °F - 26.6 °F 36% 30.01 in 10.0 mi South 23.0 mph 33.4 mph N/A   Clear
2:15 PM 53.4 °F - 26.6 °F 36% 30.00 in 10.0 mi SSE 21.9 mph 27.6 mph N/A   Clear
2:35 PM 54.0 °F - 26.8 °F 35% 30.00 in 10.0 mi South 20.7 mph 28.8 mph N/A   Clear
2:55 PM 54.3 °F - 26.8 °F 35% 30.00 in 10.0 mi SSE 24.2 mph 27.6 mph N/A   Clear
3:15 PM 54.5 °F - 27.1 °F 35% 29.99 in 10.0 mi South 16.1 mph 25.3 mph N/A   Clear
3:35 PM 54.3 °F - 27.1 °F 35% 29.98 in 10.0 mi SSE 21.9 mph 27.6 mph N/A   Clear
3:55 PM 52.5 °F - 26.8 °F 37% 29.97 in 10.0 mi SSE 19.6 mph 24.2 mph N/A   Clear
4:15 PM 51.3 °F - 27.1 °F 39% 29.96 in 10.0 mi SSE 17.3 mph 23.0 mph N/A   Clear
4:35 PM 51.1 °F - 27.3 °F 40% 29.96 in 10.0 mi SSE 15.0 mph - N/A   Clear
4:55 PM 51.1 °F - 27.3 °F 40% 29.95 in 10.0 mi SSE 17.3 mph 21.9 mph N/A   Clear
5:15 PM 50.5 °F - 27.5 °F 41% 29.95 in 10.0 mi SSE 18.4 mph - N/A   Clear
5:35 PM 49.6 °F - 27.5 °F 42% 29.95 in 10.0 mi SSE 16.1 mph - N/A   Clear
5:55 PM 49.3 °F - 27.5 °F 43% 29.94 in 10.0 mi SSE 18.4 mph 26.5 mph N/A   Clear
6:15 PM 48.7 °F - 27.3 °F 43% 29.94 in 10.0 mi SSE 17.3 mph 24.2 mph N/A   Clear
6:35 PM 48.4 °F - 27.3 °F 44% 29.93 in 10.0 mi SSE 16.1 mph 23.0 mph N/A   Clear
6:55 PM 47.5 °F - 27.5 °F 46% 29.93 in 10.0 mi South 17.3 mph 25.3 mph N/A   Clear
7:15 PM 47.1 °F - 27.7 °F 47% 29.93 in 10.0 mi South 17.3 mph 23.0 mph N/A   Clear
7:35 PM 46.6 °F - 27.9 °F 48% 29.93 in 10.0 mi SSE 15.0 mph - N/A   Clear
7:55 PM 46.2 °F 40.1 °F 28.0 °F 49% 29.93 in 10.0 mi South 13.8 mph - N/A   Clear
8:15 PM 46.0 °F 39.9 °F 28.2 °F 50% 29.93 in 10.0 mi SSE 13.8 mph 21.9 mph N/A   Clear
8:55 PM 45.5 °F 39.9 °F 28.4 °F 51% 29.93 in 10.0 mi South 11.5 mph - N/A   Clear
9:15 PM 45.5 °F 39.9 °F 28.4 °F 51% 29.93 in 10.0 mi South 11.5 mph - N/A   Clear
9:35 PM 45.7 °F 40.6 °F 28.8 °F 52% 29.94 in 10.0 mi South 10.4 mph - N/A   Clear
9:55 PM 46.2 °F 40.8 °F 28.8 °F 51% 29.94 in 10.0 mi South 11.5 mph 17.3 mph N/A   Clear
10:15 PM 45.9 °F 40.8 °F 28.8 °F 51% 29.94 in 10.0 mi South 10.4 mph - N/A   Clear
10:35 PM 45.0 °F 38.5 °F 29.1 °F 54% 29.93 in 10.0 mi South 13.8 mph - N/A   Clear
10:55 PM 45.3 °F 39.3 °F 29.3 °F 54% 29.93 in 10.0 mi South 12.7 mph - N/A   Clear
11:15 PM 45.0 °F 39.3 °F 29.5 °F 55% 29.93 in 10.0 mi South 11.5 mph - N/A   Clear
11:35 PM 44.6 °F 38.8 °F 29.5 °F 55% 29.92 in 10.0 mi SSE 11.5 mph - N/A   Clear
11:55 PM 44.2 °F 38.0 °F 29.8 °F 57% 29.91 in 10.0 mi SSE 12.7 mph - N/A   Clear